Time;durP1;ratioP1;P1;durP2;ratioP2;P2;SDS_P1;SDS_P2;PMS_P1;PMS_P2;Temp;Humidity;BMP_temperature;BMP_pressure;BME280_temperature;BME280_humidity;BME280_pressure;Samples;Min_cycle;Max_cycle;Signal;HPM_P1;HPM_P2
2022/08/24 00:01:23;;;;;;;2.90;2.50;;;15.40;99.90;;;;;;5090248;28;20243;-48
2022/08/24 00:03:50;;;;;;;4.40;3.10;;;15.20;99.90;;;;;;5090139;28;20440;-50
2022/08/24 00:06:21;;;;;;;3.53;2.70;;;15.40;99.90;;;;;;5090816;28;20502;-48
2022/08/24 00:08:50;;;;;;;2.73;2.53;;;15.30;99.90;;;;;;5089364;28;20216;-48
2022/08/24 00:11:18;;;;;;;2.77;2.43;;;15.40;99.90;;;;;;5090261;28;20702;-49
2022/08/24 00:13:47;;;;;;;3.30;2.40;;;15.40;99.90;;;;;;5090258;28;20452;-50
2022/08/24 00:16:15;;;;;;;2.70;2.50;;;15.50;99.90;;;;;;5090204;28;20483;-48
2022/08/24 00:18:43;;;;;;;4.90;3.03;;;15.40;99.90;;;;;;5089809;28;20456;-48
2022/08/24 00:21:11;;;;;;;2.38;2.17;;;15.40;99.90;;;;;;5089704;28;20530;-48
2022/08/24 00:23:38;;;;;;;2.80;2.47;;;15.40;99.90;;;;;;5090383;28;20193;-49
2022/08/24 00:26:07;;;;;;;3.07;2.77;;;15.20;99.90;;;;;;5088652;28;20516;-48
2022/08/24 00:28:34;;;;;;;4.10;3.08;;;15.20;99.90;;;;;;5090353;28;20449;-49
2022/08/24 00:31:02;;;;;;;2.90;2.60;;;15.20;99.90;;;;;;5089336;28;20267;-49
2022/08/24 00:33:29;;;;;;;2.43;2.23;;;15.30;99.90;;;;;;5089930;28;20447;-48
2022/08/24 00:35:56;;;;;;;2.63;2.43;;;15.50;99.90;;;;;;5089965;28;21037;-49
2022/08/24 00:38:23;;;;;;;3.23;2.93;;;15.50;99.90;;;;;;5089968;28;20564;-48
2022/08/24 00:40:50;;;;;;;2.63;2.43;;;15.40;99.90;;;;;;5089341;28;20458;-50
2022/08/24 00:43:20;;;;;;;2.47;2.30;;;15.50;99.90;;;;;;5089983;28;20459;-48
2022/08/24 00:45:51;;;;;;;7.07;2.30;;;15.20;99.90;;;;;;5089894;28;20447;-48
2022/08/24 00:48:25;;;;;;;4.10;2.80;;;15.30;99.90;;;;;;5090109;28;20474;-49
2022/08/24 00:50:58;;;;;;;3.00;2.70;;;15.30;99.90;;;;;;5088935;28;20494;-48
2022/08/24 00:53:27;;;;;;;5.10;2.37;;;15.00;99.90;;;;;;5089961;28;20505;-50
2022/08/24 00:55:57;;;;;;;3.23;2.40;;;15.20;99.90;;;;;;5089784;28;20998;-49
2022/08/24 00:58:29;;;;;;;3.13;2.83;;;15.20;99.90;;;;;;5092462;28;20444;-48
2022/08/24 01:00:58;;;;;;;3.03;2.50;;;14.90;99.90;;;;;;5093442;28;20447;-48
2022/08/24 01:03:28;;;;;;;3.37;2.73;;;15.00;99.90;;;;;;5093321;28;20509;-48
2022/08/24 01:05:56;;;;;;;3.70;2.58;;;14.80;99.90;;;;;;5093665;28;20453;-48
2022/08/24 01:08:24;;;;;;;3.28;2.53;;;14.80;99.90;;;;;;5093140;28;20187;-50
2022/08/24 01:10:55;;;;;;;2.83;2.53;;;15.00;99.90;;;;;;5093268;28;20726;-49
2022/08/24 01:13:24;;;;;;;4.25;2.80;;;15.20;99.90;;;;;;5093770;28;20440;-48
2022/08/24 01:15:53;;;;;;;3.13;2.47;;;15.20;99.90;;;;;;5093349;28;20225;-49
2022/08/24 01:21:15;;;;;;;2.97;2.65;;;14.90;99.90;;;;;;5093322;28;20424;-49
2022/08/24 01:23:45;;;;;;;3.00;2.50;;;14.90;99.90;;;;;;5093512;28;20258;-48
2022/08/24 01:26:17;;;;;;;3.30;3.00;;;15.20;99.90;;;;;;5091688;28;20448;-49
2022/08/24 01:28:47;;;;;;;2.90;2.50;;;15.10;99.90;;;;;;5092819;28;20442;-48
2022/08/24 01:31:15;;;;;;;2.93;2.50;;;15.20;99.90;;;;;;5093422;28;20474;-49
2022/08/24 01:33:42;;;;;;;4.10;3.13;;;15.10;99.90;;;;;;5093159;28;20436;-49
2022/08/24 01:36:15;;;;;;;4.93;3.17;;;15.00;99.90;;;;;;5093170;28;20534;-49
2022/08/24 01:38:44;;;;;;;3.90;2.83;;;15.00;99.90;;;;;;5092707;28;20439;-50
2022/08/24 01:41:11;;;;;;;2.23;2.03;;;15.10;99.90;;;;;;5093068;28;20439;-50
2022/08/24 01:43:38;;;;;;;2.80;2.43;;;15.00;99.90;;;;;;5093257;28;20579;-48
2022/08/24 01:46:05;;;;;;;3.57;2.70;;;15.10;99.90;;;;;;5093056;28;20486;-49
2022/08/24 01:48:32;;;;;;;2.50;2.30;;;14.90;99.90;;;;;;5093148;28;20448;-49
2022/08/24 01:50:59;;;;;;;5.87;2.97;;;14.90;99.90;;;;;;5092621;28;20967;-50
2022/08/24 01:53:26;;;;;;;3.80;3.07;;;15.10;99.90;;;;;;5093035;28;21012;-48
2022/08/24 01:55:55;;;;;;;2.83;2.63;;;14.90;99.90;;;;;;5092905;28;20521;-49
2022/08/24 01:58:23;;;;;;;3.53;2.63;;;14.90;99.90;;;;;;5092888;28;20521;-48
2022/08/24 02:00:50;;;;;;;3.03;2.73;;;14.90;99.90;;;;;;5092142;28;20481;-48
2022/08/24 02:03:17;;;;;;;5.30;2.50;;;15.00;99.90;;;;;;5092615;28;20444;-49
2022/08/24 02:05:44;;;;;;;4.57;3.00;;;15.00;99.90;;;;;;5092760;28;20554;-49
2022/08/24 02:08:11;;;;;;;3.00;2.80;;;14.70;99.90;;;;;;5092002;28;20513;-48
2022/08/24 02:10:38;;;;;;;3.13;2.83;;;14.90;99.90;;;;;;5092059;28;20518;-50
2022/08/24 02:13:07;;;;;;;4.50;2.70;;;14.80;99.90;;;;;;5092529;28;20456;-48
2022/08/24 02:15:38;;;;;;;3.17;2.67;;;14.60;99.90;;;;;;5092401;28;21003;-48
2022/08/24 02:18:07;;;;;;;4.43;2.70;;;14.50;99.90;;;;;;5092364;28;20247;-49
2022/08/24 02:20:36;;;;;;;2.90;2.67;;;14.70;99.90;;;;;;5091783;28;20447;-48
2022/08/24 02:23:04;;;;;;;3.00;2.20;;;14.80;99.90;;;;;;5092348;28;20451;-48
2022/08/24 02:25:31;;;;;;;2.70;2.50;;;15.10;99.90;;;;;;5092521;28;20455;-49
2022/08/24 02:27:58;;;;;;;2.90;2.70;;;14.90;99.90;;;;;;5090641;28;20439;-49
2022/08/24 02:30:27;;;;;;;4.15;2.72;;;14.80;99.90;;;;;;5091388;28;20529;-49
2022/08/24 02:32:54;;;;;;;2.93;2.63;;;14.60;99.90;;;;;;5092174;28;20220;-48
2022/08/24 02:35:22;;;;;;;3.27;2.60;;;14.30;99.90;;;;;;5092361;28;20455;-49
2022/08/24 02:37:49;;;;;;;2.63;2.33;;;14.20;99.90;;;;;;5092079;28;20534;-48
2022/08/24 02:40:16;;;;;;;3.20;2.63;;;14.20;99.90;;;;;;5091925;28;20845;-49
2022/08/24 02:42:43;;;;;;;3.13;2.83;;;14.30;99.90;;;;;;5091769;28;20442;-49
2022/08/24 02:45:11;;;;;;;2.93;2.57;;;14.40;99.90;;;;;;5091993;28;20513;-50
2022/08/24 02:47:39;;;;;;;3.30;2.80;;;14.60;99.90;;;;;;5091939;28;20508;-50
2022/08/24 02:50:10;;;;;;;2.80;2.50;;;14.20;99.90;;;;;;5091569;28;21001;-48
2022/08/24 02:52:38;;;;;;;3.00;2.50;;;13.90;99.90;;;;;;5091683;28;20467;-48
2022/08/24 02:55:08;;;;;;;2.88;2.65;;;14.40;99.90;;;;;;5091664;28;20558;-48
2022/08/24 02:57:35;;;;;;;3.70;3.40;;;14.20;99.90;;;;;;5091727;28;20213;-48
2022/08/24 03:00:02;;;;;;;5.73;2.40;;;14.40;99.90;;;;;;5090909;28;20432;-49
2022/08/24 03:02:29;;;;;;;3.70;3.20;;;14.70;99.90;;;;;;5091224;28;20907;-48
2022/08/24 03:04:57;;;;;;;3.13;2.90;;;14.90;99.90;;;;;;5091738;28;20520;-49
2022/08/24 03:07:24;;;;;;;4.72;3.00;;;14.90;99.90;;;;;;5091364;28;20518;-49
2022/08/24 03:09:51;;;;;;;3.67;3.23;;;14.80;99.90;;;;;;5090328;28;20205;-49
2022/08/24 03:12:18;;;;;;;3.53;2.57;;;14.60;99.90;;;;;;5091338;28;20478;-49
2022/08/24 03:14:45;;;;;;;5.17;2.87;;;14.50;99.90;;;;;;5091225;28;20996;-48
2022/08/24 03:17:12;;;;;;;2.70;2.33;;;14.40;99.90;;;;;;5091318;28;20497;-49
2022/08/24 03:19:40;;;;;;;4.10;2.07;;;14.50;99.90;;;;;;5090333;28;20913;-48
2022/08/24 03:22:08;;;;;;;2.90;2.60;;;14.70;99.90;;;;;;5090725;28;20431;-48
2022/08/24 03:24:35;;;;;;;4.73;3.40;;;14.30;99.90;;;;;;5091201;28;20863;-48
2022/08/24 03:27:05;;;;;;;6.80;3.00;;;14.30;99.90;;;;;;5090355;28;20436;-48
2022/08/24 03:29:33;;;;;;;3.40;3.10;;;14.40;99.90;;;;;;5090382;28;20928;-48
2022/08/24 03:32:00;;;;;;;6.33;2.97;;;14.20;99.90;;;;;;5090784;28;20474;-48
2022/08/24 03:34:27;;;;;;;3.50;2.43;;;14.20;99.90;;;;;;5090938;28;20559;-48
2022/08/24 03:36:54;;;;;;;2.90;2.60;;;14.30;99.90;;;;;;5090777;28;20883;-48
2022/08/24 03:39:23;;;;;;;3.23;2.90;;;14.40;99.90;;;;;;5090352;28;20448;-49
2022/08/24 03:41:50;;;;;;;3.15;2.80;;;14.60;99.90;;;;;;5090887;28;20451;-50
2022/08/24 03:44:17;;;;;;;2.57;2.37;;;14.30;99.90;;;;;;5090766;28;20613;-48
2022/08/24 03:46:45;;;;;;;2.60;2.40;;;14.10;99.90;;;;;;5090627;28;20431;-49
2022/08/24 03:49:13;;;;;;;3.40;2.43;;;14.40;99.90;;;;;;5090360;28;20455;-48
2022/08/24 03:51:40;;;;;;;2.60;2.40;;;14.40;99.90;;;;;;5090500;28;20478;-49
2022/08/24 03:54:09;;;;;;;2.53;2.33;;;14.10;99.90;;;;;;5090539;28;20431;-48
2022/08/24 03:56:38;;;;;;;3.20;2.90;;;14.00;99.90;;;;;;5090574;28;20443;-50
2022/08/24 03:59:06;;;;;;;5.10;3.03;;;14.10;99.90;;;;;;5089915;28;20987;-48
2022/08/24 04:01:33;;;;;;;2.40;2.20;;;14.00;99.90;;;;;;5090383;28;20497;-48
2022/08/24 04:04:00;;;;;;;2.87;2.53;;;14.30;99.90;;;;;;5090318;28;20451;-48
2022/08/24 04:06:27;;;;;;;2.53;2.33;;;14.30;99.90;;;;;;5090441;28;20442;-49
2022/08/24 04:08:56;;;;;;;2.70;2.33;;;14.30;99.90;;;;;;5089197;28;20458;-48
2022/08/24 04:11:28;;;;;;;3.70;2.63;;;14.20;99.90;;;;;;5090154;28;20468;-48
2022/08/24 04:13:58;;;;;;;5.43;2.83;;;14.20;99.90;;;;;;5090395;28;20443;-48
2022/08/24 04:16:26;;;;;;;3.20;2.70;;;14.30;99.90;;;;;;5091211;28;20472;-48
2022/08/24 04:18:53;;;;;;;3.63;3.30;;;14.20;99.90;;;;;;5089573;28;20451;-48
2022/08/24 04:21:22;;;;;;;3.97;3.10;;;14.30;99.90;;;;;;5090241;28;20524;-48
2022/08/24 04:23:51;;;;;;;4.70;2.90;;;14.60;99.90;;;;;;5090278;28;20440;-49
2022/08/24 04:26:18;;;;;;;7.37;2.90;;;14.30;99.90;;;;;;5089165;28;20342;-48
2022/08/24 04:28:46;;;;;;;3.70;2.83;;;14.00;99.90;;;;;;5089838;28;20583;-55
2022/08/24 04:31:16;;;;;;;3.97;3.20;;;13.80;99.90;;;;;;5089695;28;20488;-48
2022/08/24 04:33:43;;;;;;;3.83;2.90;;;13.80;99.90;;;;;;5089465;28;20446;-52
2022/08/24 04:36:11;;;;;;;3.13;2.83;;;13.70;99.90;;;;;;5090063;28;20460;-48
2022/08/24 04:38:38;;;;;;;3.07;2.80;;;13.80;99.90;;;;;;5089763;28;20447;-52
2022/08/24 04:41:07;;;;;;;2.80;2.47;;;14.00;99.90;;;;;;5089767;28;20525;-52
2022/08/24 04:43:35;;;;;;;3.50;2.97;;;14.20;99.90;;;;;;5090058;28;20454;-48
2022/08/24 04:46:05;;;;;;;3.03;2.73;;;14.10;99.90;;;;;;5089755;28;20439;-49
2022/08/24 04:48:35;;;;;;;2.70;2.50;;;13.70;99.90;;;;;;5090054;28;20439;-49
2022/08/24 04:51:03;;;;;;;3.73;2.60;;;13.90;99.90;;;;;;5089218;28;20513;-50
2022/08/24 04:53:30;;;;;;;3.40;3.10;;;13.90;99.90;;;;;;5089652;28;21038;-48
2022/08/24 04:55:58;;;;;;;3.60;3.30;;;14.00;99.90;;;;;;5089641;28;20508;-48
2022/08/24 04:58:27;;;;;;;2.70;2.50;;;13.90;99.90;;;;;;5090078;28;20481;-50
2022/08/24 05:00:54;;;;;;;3.37;3.07;;;13.90;99.90;;;;;;5089207;28;20440;-49
2022/08/24 05:03:21;;;;;;;3.27;2.77;;;13.70;99.90;;;;;;5089145;28;20503;-48
2022/08/24 05:05:51;;;;;;;3.37;3.07;;;13.50;99.90;;;;;;5089768;28;20540;-48
2022/08/24 05:08:20;;;;;;;3.27;2.97;;;13.60;99.90;;;;;;5089041;28;20810;-48
2022/08/24 05:10:49;;;;;;;6.00;3.65;;;13.80;99.90;;;;;;5089278;28;20436;-48
2022/08/24 05:13:16;;;;;;;3.30;3.00;;;14.00;99.90;;;;;;5089399;28;20225;-49
2022/08/24 05:15:46;;;;;;;3.17;2.80;;;14.00;99.90;;;;;;5089612;28;20501;-48
2022/08/24 05:18:14;;;;;;;3.03;2.73;;;13.60;99.90;;;;;;5089831;28;20467;-48
2022/08/24 05:20:42;;;;;;;3.27;3.00;;;13.90;99.90;;;;;;5088738;28;20520;-48
2022/08/24 05:23:11;;;;;;;3.27;2.97;;;13.90;99.90;;;;;;5089560;28;20433;-49
2022/08/24 05:25:39;;;;;;;5.83;3.40;;;14.10;99.90;;;;;;5089534;28;20463;-48
2022/08/24 05:28:07;;;;;;;2.90;2.60;;;14.00;99.90;;;;;;5088535;28;20493;-49
2022/08/24 05:30:35;;;;;;;3.53;3.10;;;13.80;99.90;;;;;;5089316;28;20482;-48
2022/08/24 05:33:02;;;;;;;4.40;2.85;;;13.80;99.90;;;;;;5089318;28;20478;-48
2022/08/24 05:35:29;;;;;;;3.50;2.93;;;13.80;99.90;;;;;;5089430;28;20210;-49
2022/08/24 05:37:56;;;;;;;3.33;2.80;;;13.70;99.90;;;;;;5089493;28;20458;-48
2022/08/24 05:40:24;;;;;;;4.07;3.67;;;14.00;99.90;;;;;;5088640;28;20431;-50
2022/08/24 05:42:51;;;;;;;6.20;2.83;;;13.70;99.90;;;;;;5089289;28;20444;-49
2022/08/24 05:45:18;;;;;;;5.03;3.87;;;13.80;99.90;;;;;;5092852;28;20451;-49
2022/08/24 05:47:45;;;;;;;4.47;3.10;;;13.80;99.90;;;;;;5093125;28;20448;-50
2022/08/24 05:50:12;;;;;;;3.93;3.63;;;13.80;99.90;;;;;;5092464;28;20443;-48
2022/08/24 05:52:40;;;;;;;3.60;3.30;;;13.80;99.90;;;;;;5092814;28;20467;-51
2022/08/24 05:55:09;;;;;;;3.03;2.83;;;13.70;99.90;;;;;;5092759;28;20458;-48
2022/08/24 05:57:37;;;;;;;8.83;3.20;;;14.00;99.90;;;;;;5092901;28;20443;-50
2022/08/24 06:00:08;;;;;;;3.63;3.23;;;14.20;99.90;;;;;;5092261;28;20452;-49
2022/08/24 06:02:35;;;;;;;6.43;3.67;;;14.30;99.90;;;;;;5092284;28;20524;-49
2022/08/24 06:05:02;;;;;;;4.43;3.50;;;14.40;99.90;;;;;;5092620;28;20492;-50
2022/08/24 06:07:29;;;;;;;3.70;3.40;;;13.90;99.90;;;;;;5092272;28;20974;-49
2022/08/24 06:09:56;;;;;;;3.87;3.57;;;13.50;99.90;;;;;;5091893;28;20512;-48
2022/08/24 06:12:23;;;;;;;4.17;3.23;;;13.70;99.90;;;;;;5092411;28;20527;-49
2022/08/24 06:14:53;;;;;;;4.93;3.67;;;13.90;99.90;;;;;;5092613;28;21228;-48
2022/08/24 06:17:20;;;;;;;4.10;3.23;;;14.20;99.90;;;;;;5092427;28;20432;-48
2022/08/24 06:19:47;;;;;;;4.73;3.13;;;13.90;99.90;;;;;;5091858;28;20752;-48
2022/08/24 06:22:14;;;;;;;4.30;3.23;;;13.60;99.90;;;;;;5092192;28;20432;-49
2022/08/24 06:27:25;;;;;;;3.10;2.83;;;13.80;99.90;;;;;;5091502;28;20427;-48
2022/08/24 06:29:56;;;;;;;4.53;2.83;;;14.10;99.90;;;;;;5091512;28;20944;-50
2022/08/24 06:32:24;;;;;;;3.30;3.00;;;14.30;99.90;;;;;;5092142;28;20471;-48
2022/08/24 06:34:54;;;;;;;3.30;2.63;;;14.40;99.90;;;;;;5092093;28;21024;-49
2022/08/24 06:37:25;;;;;;;6.53;3.17;;;14.30;99.90;;;;;;5092215;28;20512;-48
2022/08/24 06:39:52;;;;;;;4.30;3.10;;;14.50;99.90;;;;;;5091405;28;20438;-48
2022/08/24 06:42:19;;;;;;;7.27;3.30;;;14.40;99.90;;;;;;5091902;28;20451;-49
2022/08/24 06:44:46;;;;;;;19.17;4.90;;;14.00;99.90;;;;;;5091821;28;20463;-48
2022/08/24 06:47:14;;;;;;;6.10;4.20;;;14.10;99.90;;;;;;5092224;28;20448;-51
2022/08/24 06:49:41;;;;;;;4.73;4.30;;;14.10;99.90;;;;;;5091433;28;20969;-50
2022/08/24 06:52:10;;;;;;;4.60;3.90;;;13.60;99.90;;;;;;5091648;28;20479;-48
2022/08/24 06:54:37;;;;;;;4.63;3.73;;;13.50;99.90;;;;;;5091154;28;20451;-49
2022/08/24 06:57:04;;;;;;;6.03;4.87;;;13.60;99.90;;;;;;5091827;28;20787;-50
2022/08/24 06:59:32;;;;;;;6.67;4.33;;;13.70;99.90;;;;;;5090817;28;20877;-48
2022/08/24 07:01:59;;;;;;;4.20;3.40;;;13.80;99.90;;;;;;5091015;28;20484;-49
2022/08/24 07:04:28;;;;;;;6.23;3.70;;;14.10;99.90;;;;;;5091451;28;20525;-50
2022/08/24 07:06:56;;;;;;;5.50;3.70;;;14.20;99.90;;;;;;5091651;28;20458;-48
2022/08/24 07:09:23;;;;;;;3.73;3.43;;;14.30;99.90;;;;;;5090396;28;20990;-49
2022/08/24 07:11:50;;;;;;;4.27;3.83;;;14.30;99.90;;;;;;5091553;28;20810;-48
2022/08/24 07:14:18;;;;;;;3.73;3.33;;;14.50;99.90;;;;;;5091011;28;20467;-48
2022/08/24 07:16:45;;;;;;;3.27;3.00;;;14.80;99.90;;;;;;5091737;28;20487;-49
2022/08/24 07:19:12;;;;;;;3.90;3.60;;;15.00;99.90;;;;;;5090684;28;20925;-49
2022/08/24 07:21:41;;;;;;;3.40;3.00;;;15.20;99.90;;;;;;5091121;28;20428;-48
2022/08/24 07:24:09;;;;;;;3.37;3.07;;;15.60;99.90;;;;;;5091189;28;20816;-48
2022/08/24 07:26:38;;;;;;;3.50;3.20;;;15.40;99.90;;;;;;5090588;28;20501;-48
2022/08/24 07:29:09;;;;;;;3.20;2.90;;;15.30;99.90;;;;;;5090516;28;20446;-49
2022/08/24 07:31:38;;;;;;;3.60;3.30;;;15.50;99.90;;;;;;5091018;28;20432;-49
2022/08/24 07:34:07;;;;;;;5.15;3.33;;;15.50;99.90;;;;;;5090688;28;20477;-49
2022/08/24 07:36:34;;;;;;;3.30;3.00;;;15.70;99.90;;;;;;5091151;28;20241;-49
2022/08/24 07:39:03;;;;;;;3.57;3.23;;;16.00;99.90;;;;;;5090225;28;20436;-48
2022/08/24 07:41:30;;;;;;;5.57;3.33;;;16.20;99.90;;;;;;5090902;28;20477;-51
2022/08/24 07:43:58;;;;;;;3.57;3.27;;;16.10;99.90;;;;;;5090938;28;20435;-49
2022/08/24 07:46:25;;;;;;;3.00;2.70;;;16.20;99.90;;;;;;5090621;28;20942;-49
2022/08/24 07:48:52;;;;;;;3.43;2.87;;;16.20;99.90;;;;;;5089942;28;20445;-49
2022/08/24 07:51:19;;;;;;;2.90;2.67;;;16.20;99.90;;;;;;5090554;28;20447;-50
2022/08/24 07:53:47;;;;;;;3.07;2.77;;;16.30;99.90;;;;;;5090707;28;20474;-48
2022/08/24 07:56:15;;;;;;;3.23;2.93;;;16.40;99.90;;;;;;5090495;28;20455;-49
2022/08/24 07:58:43;;;;;;;3.33;3.03;;;16.40;99.90;;;;;;5090259;28;20450;-48
2022/08/24 08:01:10;;;;;;;3.35;3.08;;;16.10;99.90;;;;;;5090155;28;20194;-51
2022/08/24 08:03:37;;;;;;;3.17;2.93;;;16.30;99.90;;;;;;5089855;28;20212;-50
2022/08/24 08:06:07;;;;;;;5.73;2.97;;;16.60;99.90;;;;;;5090121;28;20471;-49
2022/08/24 08:08:37;;;;;;;3.47;3.17;;;16.60;99.90;;;;;;5090029;28;20431;-49
2022/08/24 08:11:05;;;;;;;3.63;3.00;;;16.70;99.90;;;;;;5089844;28;20435;-50
2022/08/24 08:13:35;;;;;;;3.20;2.93;;;16.60;99.90;;;;;;5090170;28;20467;-51
2022/08/24 08:16:03;;;;;;;3.33;3.03;;;16.60;99.90;;;;;;5090082;28;20675;-52
2022/08/24 08:18:31;;;;;;;3.30;2.67;;;16.70;99.90;;;;;;5090293;28;20515;-48
2022/08/24 08:20:58;;;;;;;2.93;2.67;;;16.80;99.90;;;;;;5089613;28;20498;-48
2022/08/24 08:26:14;;;;;;;2.90;2.70;;;16.90;99.90;;;;;;5088961;28;20495;-50
2022/08/24 08:28:42;;;;;;;4.53;3.47;;;17.00;99.90;;;;;;5089877;28;20199;-49
2022/08/24 08:31:09;;;;;;;8.07;2.80;;;17.10;99.90;;;;;;5089919;28;20487;-50
2022/08/24 08:33:36;;;;;;;3.10;2.43;;;17.30;99.90;;;;;;5089904;28;21032;-49
2022/08/24 08:36:06;;;;;;;3.10;2.80;;;17.50;99.90;;;;;;5090022;28;20489;-50
2022/08/24 08:38:34;;;;;;;3.10;2.50;;;17.60;99.90;;;;;;5089844;28;20227;-49
2022/08/24 08:41:24;;;;;;;3.03;2.50;;;17.80;99.90;;;;;;5089303;28;20913;-49
2022/08/24 08:44:00;;;;;;;3.63;3.33;;;18.00;99.90;;;;;;5090059;28;20202;-49
2022/08/24 08:46:40;;;;;;;2.70;2.50;;;18.00;99.90;;;;;;5089814;28;20450;-50
2022/08/24 08:49:28;;;;;;;4.33;3.00;;;18.00;99.90;;;;;;5089473;28;20525;-48
2022/08/24 08:52:25;;;;;;;3.03;2.73;;;18.20;99.90;;;;;;5086334;28;20440;-49
2022/08/24 08:55:03;;;;;;;3.37;3.13;;;18.30;99.90;;;;;;5089883;28;20452;-49
2022/08/24 08:57:50;;;;;;;4.00;3.60;;;18.30;99.90;;;;;;5089456;28;20920;-48
2022/08/24 09:00:22;;;;;;;4.57;2.90;;;18.40;99.90;;;;;;5089231;28;20508;-50
2022/08/24 09:03:46;;;;;;;3.20;2.90;;;18.40;99.90;;;;;;5088890;28;20893;-49
2022/08/24 09:06:34;;;;;;;2.70;2.50;;;18.50;99.90;;;;;;5007147;28;20869;-48
2022/08/24 09:09:23;;;;;;;3.17;2.88;;;18.50;99.90;;;;;;5005653;28;21068;-49
2022/08/24 09:11:59;;;;;;;3.30;3.00;;;18.60;99.90;;;;;;5067780;28;20291;-51
2022/08/24 09:15:17;;;;;;;2.87;2.67;;;18.80;99.90;;;;;;5089320;28;20474;-49
2022/08/24 09:18:11;;;;;;;3.43;3.13;;;19.00;99.90;;;;;;5007153;28;20851;-48
2022/08/24 09:20:53;;;;;;;3.97;3.47;;;19.10;99.90;;;;;;5010325;28;20455;-51
2022/08/24 09:23:29;;;;;;;3.50;3.20;;;19.20;99.90;;;;;;5070568;28;20496;-49
2022/08/24 09:26:03;;;;;;;5.07;3.38;;;19.00;99.90;;;;;;5092001;28;20521;-48
2022/08/24 09:28:43;;;;;;;3.20;2.90;;;19.10;99.90;;;;;;5093471;28;20219;-48
2022/08/24 09:31:52;;;;;;;3.40;3.10;;;19.30;99.90;;;;;;5093131;28;20958;-49
2022/08/24 09:34:35;;;;;;;3.10;2.80;;;19.60;99.90;;;;;;5092829;28;20482;-48
2022/08/24 09:37:15;;;;;;;4.33;3.30;;;19.90;99.90;;;;;;5093461;28;20448;-52
2022/08/24 09:40:00;;;;;;;3.60;3.03;;;19.60;99.90;;;;;;5092802;28;20443;-50
2022/08/24 09:43:04;;;;;;;3.53;3.00;;;20.00;99.90;;;;;;5092925;28;20459;-49
2022/08/24 09:45:58;;;;;;;3.80;3.37;;;20.00;99.90;;;;;;5079383;28;20244;-49
2022/08/24 09:49:01;;;;;;;3.83;3.53;;;20.40;99.90;;;;;;5093064;28;20447;-49
2022/08/24 09:52:08;;;;;;;3.67;3.37;;;20.80;99.90;;;;;;5092456;28;20427;-55
2022/08/24 09:55:11;;;;;;;3.20;2.90;;;20.40;99.90;;;;;;5069342;28;20538;-52
2022/08/24 09:58:03;;;;;;;2.87;2.50;;;20.40;99.90;;;;;;5078789;28;20447;-49
2022/08/24 10:00:35;;;;;;;3.30;2.97;;;20.30;99.40;;;;;;5092181;28;20455;-49
2022/08/24 10:03:34;;;;;;;4.47;3.00;;;20.30;99.90;;;;;;5092094;28;20836;-49
2022/08/24 10:06:13;;;;;;;3.33;2.83;;;20.60;99.90;;;;;;5085303;28;20801;-50
2022/08/24 10:08:54;;;;;;;7.40;3.10;;;20.70;99.80;;;;;;5091901;28;20447;-50
2022/08/24 10:11:32;;;;;;;3.30;3.00;;;20.60;99.40;;;;;;5092495;28;20497;-50
2022/08/24 10:14:07;;;;;;;3.13;2.83;;;20.90;99.20;;;;;;5091957;28;20463;-48
2022/08/24 10:16:44;;;;;;;4.10;2.80;;;20.90;97.50;;;;;;5093472;28;20431;-50
2022/08/24 10:19:28;;;;;;;3.47;2.77;;;20.70;98.00;;;;;;5091940;28;20447;-49
2022/08/24 10:22:08;;;;;;;2.70;2.50;;;20.70;97.50;;;;;;5092205;28;20503;-49
2022/08/24 10:24:48;;;;;;;2.93;2.73;;;20.90;97.10;;;;;;5092483;28;20467;-49
2022/08/24 10:27:37;;;;;;;4.67;2.40;;;20.80;97.60;;;;;;5091353;28;20489;-51
2022/08/24 10:30:29;;;;;;;3.30;2.67;;;21.10;98.70;;;;;;5091393;28;20452;-50
2022/08/24 10:33:09;;;;;;;4.57;2.70;;;21.60;97.70;;;;;;5075100;28;20443;-49
2022/08/24 10:35:47;;;;;;;4.87;2.50;;;21.40;94.40;;;;;;5092259;28;20468;-49
2022/08/24 10:41:50;;;;;;;3.55;2.53;;;21.40;98.20;;;;;;5091054;28;20880;-49
2022/08/24 10:44:43;;;;;;;2.80;2.60;;;21.80;98.10;;;;;;5078204;28;20199;-49
2022/08/24 10:47:18;;;;;;;3.83;3.53;;;21.90;99.70;;;;;;5079982;28;20446;-49
2022/08/24 10:50:24;;;;;;;3.20;2.87;;;22.10;98.00;;;;;;5090383;28;20451;-49
2022/08/24 10:53:22;;;;;;;3.50;3.20;;;22.60;99.30;;;;;;5090863;28;20492;-49
2022/08/24 10:56:03;;;;;;;5.90;3.60;;;22.60;99.90;;;;;;5091595;28;20523;-49
2022/08/24 10:58:45;;;;;;;4.13;3.20;;;23.10;99.70;;;;;;5091683;28;20450;-49
2022/08/24 11:01:21;;;;;;;6.57;3.43;;;22.90;99.30;;;;;;5091633;28;20458;-49
2022/08/24 11:03:50;;;;;;;3.17;2.93;;;22.80;99.00;;;;;;5091246;28;20448;-49
2022/08/24 11:06:19;;;;;;;3.00;2.77;;;22.90;99.40;;;;;;5090875;28;20886;-49
2022/08/24 11:08:54;;;;;;;3.60;3.20;;;22.90;99.90;;;;;;5089456;28;20488;-50
2022/08/24 11:11:26;;;;;;;8.80;3.80;;;;;;;;;;5091373;28;20797;-49
2022/08/24 11:13:57;;;;;;;3.70;3.40;;;23.30;99.50;;;;;;5091176;28;20822;-49
2022/08/24 11:16:30;;;;;;;3.97;3.60;;;23.20;97.80;;;;;;5090869;28;20495;-50
2022/08/24 11:18:59;;;;;;;7.10;3.57;;;23.30;99.70;;;;;;5090224;28;21182;-49
2022/08/24 11:21:56;;;;;;;6.87;3.30;;;23.30;99.70;;;;;;5090350;28;20513;-49
2022/08/24 11:24:38;;;;;;;4.63;3.30;;;23.40;99.90;;;;;;5091094;28;20439;-49
2022/08/24 11:27:08;;;;;;;4.90;3.27;;;23.30;98.90;;;;;;5089028;28;20804;-49
2022/08/24 11:29:58;;;;;;;4.10;3.80;;;23.40;99.50;;;;;;5090534;28;20477;-49
2022/08/24 11:32:36;;;;;;;3.50;3.20;;;23.40;99.50;;;;;;5090569;28;20482;-48
2022/08/24 11:35:08;;;;;;;3.80;3.40;;;23.50;98.70;;;;;;5090814;28;20568;-49
2022/08/24 11:37:37;;;;;;;3.87;3.57;;;23.50;99.90;;;;;;5090979;28;20798;-49
2022/08/24 11:40:05;;;;;;;3.53;3.23;;;23.70;99.10;;;;;;5090117;28;20428;-49
2022/08/24 11:42:47;;;;;;;3.13;2.63;;;23.70;99.60;;;;;;5090097;28;20940;-49
2022/08/24 11:45:20;;;;;;;3.50;3.20;;;23.40;98.70;;;;;;5090731;28;20517;-50
2022/08/24 11:48:03;;;;;;;3.03;2.73;;;23.60;99.90;;;;;;5091060;28;20538;-49
2022/08/24 11:50:35;;;;;;;3.67;3.33;;;23.80;98.80;;;;;;5089914;28;20655;-50
2022/08/24 11:53:21;;;;;;;4.00;2.50;;;23.70;99.90;;;;;;5090829;28;20446;-49
2022/08/24 11:55:57;;;;;;;3.47;3.17;;;23.90;99.60;;;;;;5090536;28;20473;-49
2022/08/24 11:58:46;;;;;;;3.80;3.30;;;23.90;98.60;;;;;;5090523;28;20485;-49
2022/08/24 12:01:19;;;;;;;3.40;3.10;;;23.80;99.30;;;;;;5087382;28;20489;-49
2022/08/24 12:04:07;;;;;;;3.90;2.63;;;23.90;99.80;;;;;;5090587;28;20439;-49
2022/08/24 12:06:45;;;;;;;3.40;2.73;;;24.20;99.80;;;;;;5090489;28;20471;-49
2022/08/24 12:09:22;;;;;;;3.00;2.77;;;24.20;99.90;;;;;;5088396;28;20496;-49
2022/08/24 12:11:59;;;;;;;3.67;3.33;;;24.30;98.30;;;;;;5090156;28;20439;-49
2022/08/24 12:14:33;;;;;;;3.40;3.10;;;24.20;97.30;;;;;;5089900;28;20486;-49
2022/08/24 12:17:04;;;;;;;3.27;2.33;;;24.20;98.30;;;;;;5090356;28;20504;-50
2022/08/24 12:19:37;;;;;;;3.17;2.87;;;24.30;97.70;;;;;;5088999;28;20489;-49
2022/08/24 12:22:07;;;;;;;2.40;2.20;;;24.20;97.40;;;;;;5089996;28;20964;-49
2022/08/24 12:24:43;;;;;;;3.93;3.53;;;24.20;97.60;;;;;;5089066;28;20462;-49
2022/08/24 12:27:14;;;;;;;4.13;2.40;;;24.30;95.70;;;;;;5088387;28;20459;-50
2022/08/24 12:29:45;;;;;;;3.20;2.67;;;24.30;96.20;;;;;;5089163;28;20438;-49
2022/08/24 12:32:16;;;;;;;4.90;2.73;;;24.50;97.80;;;;;;5089757;28;20456;-49
2022/08/24 12:34:55;;;;;;;6.13;3.20;;;24.40;98.40;;;;;;5089881;28;20479;-50
2022/08/24 12:37:28;;;;;;;3.20;2.70;;;24.40;98.20;;;;;;5089935;28;20965;-49
2022/08/24 12:40:04;;;;;;;2.60;2.37;;;24.40;97.60;;;;;;5089221;28;20320;-49
2022/08/24 12:42:39;;;;;;;2.67;2.30;;;24.40;97.00;;;;;;5089550;28;21023;-49
2022/08/24 12:45:10;;;;;;;5.10;2.50;;;24.40;95.90;;;;;;5089899;28;20459;-49
2022/08/24 12:47:44;;;;;;;2.80;2.50;;;24.30;94.10;;;;;;5089928;28;20443;-49
2022/08/24 12:50:22;;;;;;;2.67;2.33;;;24.50;96.80;;;;;;5089050;28;20685;-49
2022/08/24 12:53:30;;;;;;;3.50;2.37;;;24.40;97.30;;;;;;5089340;28;20439;-49
2022/08/24 12:56:26;;;;;;;2.40;2.00;;;24.60;97.90;;;;;;5093568;28;20479;-49
2022/08/24 12:59:03;;;;;;;4.22;2.47;;;24.80;96.40;;;;;;5093158;28;20439;-49
2022/08/24 13:01:35;;;;;;;4.03;2.47;;;24.70;96.30;;;;;;5093690;28;20208;-49
2022/08/24 13:04:29;;;;;;;4.47;2.20;;;24.70;94.30;;;;;;5093896;28;20451;-50
2022/08/24 13:07:04;;;;;;;3.47;2.40;;;25.00;93.50;;;;;;5093492;28;20189;-49
2022/08/24 13:09:34;;;;;;;2.73;2.37;;;25.10;96.00;;;;;;5090931;28;20451;-51
2022/08/24 13:12:50;;;;;;;2.50;2.30;;;24.90;93.80;;;;;;5093683;28;20564;-49
2022/08/24 13:15:46;;;;;;;2.43;1.60;;;25.00;95.20;;;;;;5093555;28;20475;-49
2022/08/24 13:18:49;;;;;;;3.23;2.03;;;25.10;95.20;;;;;;5093471;28;20447;-49
2022/08/24 13:21:33;;;;;;;2.97;1.47;;;24.90;97.10;;;;;;5093021;28;20447;-49
2022/08/24 13:24:18;;;;;;;3.43;2.00;;;;;;;;;;5090080;28;20443;-49
2022/08/24 13:26:47;;;;;;;6.70;2.00;;;25.40;94.10;;;;;;5091918;28;20997;-49
2022/08/24 13:29:16;;;;;;;2.00;1.80;;;25.20;94.50;;;;;;5092792;28;20517;-50